Time;durP1;ratioP1;P1;durP2;ratioP2;P2;SDS_P1;SDS_P2;PMS_P1;PMS_P2;Temp;Humidity;BMP_temperature;BMP_pressure;BME280_temperature;BME280_humidity;BME280_pressure;Samples;Min_cycle;Max_cycle;Signal;HPM_P1;HPM_P2
2022/09/01 14:09:46;;;;;;;4.60;2.28;;;;;;;;;;5082942;28;20424;-90
2022/09/01 14:12:11;;;;;;;3.10;2.30;;;;;;;;;;5071065;28;20063;-89
2022/09/01 14:14:36;;;;;;;3.03;2.42;;;;;;;;;;5073804;28;21004;-90
2022/09/01 14:17:02;;;;;;;2.80;2.15;;;;;;;;;;5071194;28;20480;-90
2022/09/01 14:19:28;;;;;;;5.72;2.25;;;;;;;;;;5075121;28;20029;-90
2022/09/01 14:21:54;;;;;;;3.30;2.30;;;;;;;;;;5071842;28;20024;-90
2022/09/01 14:24:19;;;;;;;5.53;2.30;;;;;;;;;;5075501;28;20089;-90
2022/09/01 14:26:46;;;;;;;2.45;2.15;;;;;;;;;;5059176;28;20616;-90
2022/09/01 14:29:12;;;;;;;6.40;2.40;;;;;;;;;;5056609;28;20533;-88
2022/09/01 14:31:37;;;;;;;4.53;2.55;;;;;;;;;;5055699;28;20048;-88
2022/09/01 14:34:03;;;;;;;3.65;2.35;;;;;;;;;;5053475;28;20052;-89
2022/09/01 14:36:30;;;;;;;3.58;2.70;;;;;;;;;;5052881;28;20398;-88
2022/09/01 14:38:55;;;;;;;5.65;2.60;;;;;;;;;;5059423;28;20037;-89
2022/09/01 14:41:23;;;;;;;6.03;2.30;;;;;;;;;;5061148;28;20037;-87
2022/09/01 14:43:51;;;;;;;5.70;2.50;;;;;;;;;;5056375;28;20037;-87
2022/09/01 14:46:18;;;;;;;3.30;2.22;;;;;;;;;;5056061;28;20526;-87
2022/09/01 14:48:46;;;;;;;3.47;2.38;;;;;;;;;;5054443;28;20029;-87
2022/09/01 14:51:25;;;;;;;2.92;2.00;;;;;;;;;;5064552;28;20499;-89
2022/09/01 14:53:52;;;;;;;2.55;2.35;;;;;;;;;;5065615;28;20093;-90
2022/09/01 14:56:18;;;;;;;3.00;2.60;;;;;;;;;;5052751;28;20060;-87
2022/09/01 14:58:46;;;;;;;3.83;2.47;;;;;;;;;;5059733;28;20433;-88
2022/09/01 15:01:16;;;;;;;4.35;2.65;;;;;;;;;;5052635;28;20029;-88
2022/09/01 15:03:42;;;;;;;3.17;2.22;;;;;;;;;;5060222;28;20037;-87
2022/09/01 15:06:13;;;;;;;3.28;2.10;;;;;;;;;;5051063;28;20043;-88
2022/09/01 15:08:41;;;;;;;3.40;2.25;;;;;;;;;;5053629;28;20539;-86
2022/09/01 15:11:11;;;;;;;5.82;2.47;;;;;;;;;;5064630;28;20036;-89
2022/09/01 15:13:38;;;;;;;3.83;2.65;;;;;;;;;;5061554;28;20096;-88
2022/09/01 15:16:04;;;;;;;8.13;2.35;;;;;;;;;;5069737;28;20020;-87
2022/09/01 15:18:30;;;;;;;4.10;2.58;;;;;;;;;;5059074;28;20112;-87
2022/09/01 15:20:56;;;;;;;2.90;2.40;;;;;;;;;;5047254;28;20145;-86
2022/09/01 15:23:24;;;;;;;2.67;2.33;;;;;;;;;;5042644;28;20128;-89
2022/09/01 15:25:52;;;;;;;2.58;2.38;;;;;;;;;;5039743;28;20040;-88
2022/09/01 15:28:18;;;;;;;3.08;2.40;;;;;;;;;;5043401;28;20120;-88
2022/09/01 15:30:44;;;;;;;3.97;2.40;;;;;;;;;;5050781;28;20108;-87
2022/09/01 15:33:10;;;;;;;3.47;2.22;;;;;;;;;;5039245;28;20033;-87
2022/09/01 15:35:35;;;;;;;3.00;2.30;;;;;;;;;;5047620;28;20086;-89
2022/09/01 15:38:01;;;;;;;3.97;2.42;;;;;;;;;;5053851;28;20041;-87
2022/09/01 15:40:27;;;;;;;3.53;2.35;;;;;;;;;;5056929;28;20426;-87
2022/09/01 15:42:53;;;;;;;3.33;2.25;;;;;;;;;;5036148;28;20025;-88
2022/09/01 15:45:21;;;;;;;3.40;2.42;;;;;;;;;;5044772;28;20498;-89
2022/09/01 15:47:47;;;;;;;3.10;2.10;;;;;;;;;;5047679;28;20037;-87
2022/09/01 15:50:15;;;;;;;2.90;2.17;;;;;;;;;;5048520;28;20066;-86
2022/09/01 15:52:56;;;;;;;4.32;2.13;;;;;;;;;;5042788;28;20037;-87
2022/09/01 15:55:45;;;;;;;4.43;2.40;;;;;;;;;;5046252;28;20112;-89
2022/09/01 15:58:13;;;;;;;4.13;2.55;;;;;;;;;;5048807;28;20030;-89
2022/09/01 16:00:40;;;;;;;3.05;2.53;;;;;;;;;;5053551;28;20028;-88
2022/09/01 16:03:06;;;;;;;2.78;2.47;;;;;;;;;;5049747;28;20078;-89
2022/09/01 16:05:33;;;;;;;3.03;2.47;;;;;;;;;;5057743;28;21570;-88
2022/09/01 16:08:00;;;;;;;7.00;2.70;;;;;;;;;;5047217;28;20041;-89
2022/09/01 16:10:28;;;;;;;5.90;2.63;;;;;;;;;;5038558;28;20133;-90
2022/09/01 16:12:54;;;;;;;2.85;2.47;;;;;;;;;;5049241;28;20013;-89
2022/09/01 16:15:21;;;;;;;4.07;2.40;;;;;;;;;;5054859;28;20051;-90
2022/09/01 16:17:56;;;;;;;4.57;2.63;;;;;;;;;;5055252;28;20704;-87
2022/09/01 16:20:34;;;;;;;3.05;2.38;;;;;;;;;;5051005;28;20107;-89
2022/09/01 16:23:22;;;;;;;4.90;2.22;;;;;;;;;;5049665;28;20048;-87
2022/09/01 16:25:48;;;;;;;2.67;2.30;;;;;;;;;;5041494;28;20040;-89
2022/09/01 16:28:41;;;;;;;3.15;2.40;;;;;;;;;;5043109;28;20116;-87
2022/09/01 16:31:16;;;;;;;3.45;2.47;;;;;;;;;;5036101;28;20033;-88
2022/09/01 16:33:48;;;;;;;2.35;2.10;;;;;;;;;;5025784;28;20173;-87
2022/09/01 16:36:33;;;;;;;2.47;2.15;;;;;;;;;;5045401;28;20529;-88
2022/09/01 16:39:17;;;;;;;3.42;2.30;;;;;;;;;;5045631;28;20033;-89
2022/09/01 16:41:51;;;;;;;2.97;2.25;;;;;;;;;;5050990;28;20032;-89
2022/09/01 16:44:33;;;;;;;3.72;2.90;;;;;;;;;;5047528;28;20179;-88
2022/09/01 16:47:28;;;;;;;3.00;2.28;;;;;;;;;;5048177;28;20113;-88
2022/09/01 16:50:13;;;;;;;4.70;2.25;;;;;;;;;;5039798;28;20129;-88
2022/09/01 16:53:12;;;;;;;4.95;2.10;;;;;;;;;;5033965;28;20112;-86
2022/09/01 16:56:16;;;;;;;2.13;1.92;;;;;;;;;;5034635;28;20045;-84
2022/09/01 16:58:54;;;;;;;;;;;;;;;;;;5026215;28;20114;-89
2022/09/01 17:01:19;;;;;;;2.85;2.40;;;;;;;;;;5063872;28;19928;-87
2022/09/01 17:04:00;;;;;;;2.55;2.20;;;;;;;;;;5049983;28;20410;-90
2022/09/01 17:06:35;;;;;;;3.00;2.30;;;;;;;;;;5047461;28;20033;-90
2022/09/01 17:09:34;;;;;;;2.40;2.03;;;;;;;;;;5061472;28;20041;-88
2022/09/01 17:12:32;;;;;;;3.38;2.10;;;;;;;;;;5045809;28;20037;-88
2022/09/01 17:15:13;;;;;;;2.28;2.05;;;;;;;;;;5046247;28;20041;-90
2022/09/01 17:17:52;;;;;;;3.08;2.03;;;;;;;;;;5042834;28;20522;-89
2022/09/01 17:20:22;;;;;;;3.50;2.30;;;;;;;;;;5050207;28;20615;-87
2022/09/01 17:22:53;;;;;;;2.97;2.03;;;;;;;;;;5040373;28;20030;-88
2022/09/01 17:25:39;;;;;;;2.53;2.22;;;;;;;;;;5032968;28;20053;-86
2022/09/01 17:28:15;;;;;;;3.15;1.90;;;;;;;;;;5036703;28;20018;-87
2022/09/01 17:30:56;;;;;;;4.20;2.15;;;;;;;;;;5043415;28;20033;-87
2022/09/01 17:33:41;;;;;;;2.25;1.92;;;;;;;;;;5049594;28;20099;-87
2022/09/01 17:36:12;;;;;;;3.47;1.80;;;;;;;;;;5033447;28;20040;-85
2022/09/01 17:38:55;;;;;;;4.93;1.92;;;;;;;;;;5030976;28;21496;-88
2022/09/01 17:41:29;;;;;;;1.90;1.80;;;;;;;;;;5040452;28;20048;-86
2022/09/01 17:43:58;;;;;;;3.22;2.30;;;;;;;;;;5038954;28;20307;-86
2022/09/01 17:46:39;;;;;;;1.90;1.70;;;;;;;;;;5041733;28;20055;-85
2022/09/01 17:49:29;;;;;;;2.40;1.90;;;;;;;;;;5039277;28;20088;-87
2022/09/01 17:52:22;;;;;;;3.30;1.80;;;;;;;;;;5036058;28;20117;-86
2022/09/01 17:54:54;;;;;;;2.78;2.00;;;;;;;;;;5047472;28;20044;-86
2022/09/01 17:57:35;;;;;;;2.00;1.75;;;;;;;;;;5042397;28;20112;-88
2022/09/01 18:00:12;;;;;;;4.40;1.90;;;;;;;;;;5040900;28;20082;-85
2022/09/01 18:02:57;;;;;;;2.83;2.10;;;;;;;;;;5051495;28;20804;-86
2022/09/01 18:05:24;;;;;;;2.92;2.30;;;;;;;;;;5057848;28;20037;-85
2022/09/01 18:08:22;;;;;;;2.90;2.03;;;;;;;;;;5034532;28;20072;-85
2022/09/01 18:11:07;;;;;;;2.88;1.90;;;;;;;;;;5033916;28;20103;-84
2022/09/01 18:13:38;;;;;;;2.95;2.25;;;;;;;;;;5034087;28;20143;-83
2022/09/01 18:16:11;;;;;;;2.30;1.83;;;;;;;;;;5040401;28;20029;-84
2022/09/01 18:18:39;;;;;;;2.40;2.05;;;;;;;;;;5041585;28;20090;-83
2022/09/01 18:21:13;;;;;;;6.72;2.63;;;;;;;;;;5047545;28;20110;-83
2022/09/01 18:23:42;;;;;;;3.33;2.20;;;;;;;;;;5065337;28;20048;-83
2022/09/01 18:26:17;;;;;;;4.38;1.73;;;;;;;;;;5061002;28;20048;-83
2022/09/01 18:28:43;;;;;;;2.30;1.95;;;;;;;;;;5039799;28;20048;-83
2022/09/01 18:31:32;;;;;;;4.43;2.00;;;;;;;;;;5033676;28;20121;-83
2022/09/01 18:34:29;;;;;;;4.53;2.00;;;;;;;;;;5036138;28;20025;-83
2022/09/01 18:37:14;;;;;;;2.72;1.88;;;;;;;;;;5037568;28;20029;-83
2022/09/01 18:40:05;;;;;;;3.83;2.03;;;;;;;;;;5032931;28;20026;-83
2022/09/01 18:42:36;;;;;;;3.45;2.20;;;;;;;;;;5036729;28;20058;-83
2022/09/01 18:45:07;;;;;;;2.58;2.08;;;;;;;;;;5038141;28;20065;-83
2022/09/01 18:47:35;;;;;;;3.97;2.00;;;;;;;;;;5034811;28;20601;-83
2022/09/01 18:50:13;;;;;;;2.25;1.90;;;;;;;;;;5035832;28;20791;-82
2022/09/01 18:52:50;;;;;;;2.45;2.00;;;;;;;;;;5039463;28;20041;-83
2022/09/01 18:55:34;;;;;;;5.60;1.95;;;;;;;;;;5037965;28;20041;-83
2022/09/01 18:58:04;;;;;;;3.92;1.92;;;;;;;;;;5041820;28;20413;-83
2022/09/01 19:00:38;;;;;;;7.40;2.10;;;;;;;;;;5038259;28;20052;-83
2022/09/01 19:03:09;;;;;;;;;;;;;;;;;;5043030;28;20568;-83
2022/09/01 19:05:44;;;;;;;4.82;1.80;;;;;;;;;;5041439;28;19940;-82
2022/09/01 19:08:22;;;;;;;2.97;1.80;;;;;;;;;;5039666;28;20060;-83
2022/09/01 19:11:02;;;;;;;3.70;2.17;;;;;;;;;;5044852;28;20052;-83
2022/09/01 19:13:58;;;;;;;3.50;1.90;;;;;;;;;;5044663;28;20122;-83
2022/09/01 19:16:53;;;;;;;2.95;2.08;;;;;;;;;;5024365;28;20411;-83
2022/09/01 19:19:56;;;;;;;2.75;1.80;;;;;;;;;;5037552;28;20045;-83
2022/09/01 19:22:32;;;;;;;5.70;1.90;;;;;;;;;;5040806;28;20029;-84
2022/09/01 19:28:24;;;;;;;3.00;2.15;;;;;;;;;;5041000;28;20027;-84
2022/09/01 19:31:21;;;;;;;4.70;1.85;;;;;;;;;;5047416;28;20903;-83
2022/09/01 19:33:51;;;;;;;2.90;2.25;;;;;;;;;;5042778;28;20511;-84
2022/09/01 19:36:26;;;;;;;2.50;1.90;;;;;;;;;;5036919;28;20048;-83
2022/09/01 19:38:52;;;;;;;3.95;2.20;;;;;;;;;;5053651;28;20820;-82
2022/09/01 19:41:34;;;;;;;2.70;1.92;;;;;;;;;;5039136;28;20135;-83
2022/09/01 19:44:29;;;;;;;2.38;2.00;;;;;;;;;;5036777;28;20045;-83
2022/09/01 19:47:03;;;;;;;5.13;1.95;;;;;;;;;;5054396;28;20068;-82
2022/09/01 19:49:41;;;;;;;5.47;2.05;;;;;;;;;;5043677;28;20544;-83
2022/09/01 19:52:26;;;;;;;2.20;1.88;;;;;;;;;;5039018;28;20049;-83
2022/09/01 19:55:10;;;;;;;5.82;2.20;;;;;;;;;;5039327;28;20580;-82
2022/09/01 19:57:44;;;;;;;;;;;;;;;;;;5038334;28;20094;-84
2022/09/01 20:00:17;;;;;;;2.55;2.00;;;;;;;;;;5035960;28;19932;-83
2022/09/01 20:02:54;;;;;;;2.78;2.05;;;;;;;;;;5040889;28;20049;-82
2022/09/01 20:05:30;;;;;;;4.65;2.10;;;;;;;;;;5041792;28;20055;-82
2022/09/01 20:08:13;;;;;;;4.10;2.20;;;;;;;;;;5037310;28;20609;-83
2022/09/01 20:11:02;;;;;;;3.17;2.22;;;;;;;;;;5042869;28;20060;-82
2022/09/01 20:13:46;;;;;;;2.67;2.20;;;;;;;;;;5037640;28;20049;-82
2022/09/01 20:16:28;;;;;;;2.75;2.42;;;;;;;;;;5035130;28;20527;-83
2022/09/01 20:19:03;;;;;;;3.45;2.17;;;;;;;;;;5037200;28;20029;-83
2022/09/01 20:21:30;;;;;;;2.92;2.50;;;;;;;;;;5036863;28;20490;-81
2022/09/01 20:24:18;;;;;;;3.90;3.00;;;;;;;;;;5052999;28;20094;-81
2022/09/01 20:27:02;;;;;;;2.95;2.15;;;;;;;;;;5037953;28;20124;-81
2022/09/01 20:29:34;;;;;;;7.25;2.10;;;;;;;;;;5038630;28;20041;-81
2022/09/01 20:32:02;;;;;;;3.10;2.33;;;;;;;;;;5034055;28;20063;-82
2022/09/01 20:34:54;;;;;;;3.13;2.30;;;;;;;;;;5035716;28;20125;-81
2022/09/01 20:37:29;;;;;;;5.55;2.40;;;;;;;;;;5028362;28;20049;-81
2022/09/01 20:40:03;;;;;;;7.55;2.30;;;;;;;;;;5036031;28;20132;-81
2022/09/01 20:42:52;;;;;;;3.30;2.20;;;;;;;;;;5038688;28;20108;-81
2022/09/01 20:45:22;;;;;;;3.03;2.20;;;;;;;;;;5035848;28;20061;-81
2022/09/01 20:47:54;;;;;;;4.22;2.50;;;;;;;;;;5037402;28;20160;-81
2022/09/01 20:50:33;;;;;;;2.75;2.03;;;;;;;;;;5037719;28;20033;-81
2022/09/01 20:53:33;;;;;;;4.07;2.40;;;;;;;;;;5038813;28;20071;-82
2022/09/01 20:56:01;;;;;;;4.22;2.53;;;;;;;;;;5032724;28;20441;-81
2022/09/01 20:58:32;;;;;;;2.97;2.33;;;;;;;;;;5035380;28;20045;-81
2022/09/01 21:01:25;;;;;;;5.43;2.33;;;;;;;;;;5034312;28;20029;-81
2022/09/01 21:03:50;;;;;;;6.88;2.42;;;;;;;;;;5036053;28;20501;-80
2022/09/01 21:06:53;;;;;;;4.40;2.50;;;;;;;;;;5030859;28;20032;-81
2022/09/01 21:09:56;;;;;;;2.95;2.30;;;;;;;;;;4993961;28;20539;-81
2022/09/01 21:12:45;;;;;;;5.03;2.40;;;;;;;;;;5053783;28;20059;-80
2022/09/01 21:15:19;;;;;;;3.17;2.40;;;;;;;;;;5035699;28;20041;-81
2022/09/01 21:17:47;;;;;;;2.75;2.42;;;;;;;;;;5032886;28;20044;-80
2022/09/01 21:20:20;;;;;;;4.75;2.20;;;;;;;;;;5027530;28;20068;-81
2022/09/01 21:22:46;;;;;;;;;;;;;;;;;;5036813;28;20045;-81
2022/09/01 21:25:11;;;;;;;2.60;2.25;;;;;;;;;;5035932;28;19928;-81
2022/09/01 21:27:47;;;;;;;2.70;2.17;;;;;;;;;;5037758;28;20520;-80
2022/09/01 21:30:14;;;;;;;5.45;2.60;;;;;;;;;;5030135;28;20544;-80
2022/09/01 21:32:39;;;;;;;3.72;2.28;;;;;;;;;;5038021;28;20040;-80
2022/09/01 21:35:07;;;;;;;5.65;2.67;;;;;;;;;;5030255;28;20049;-81
2022/09/01 21:37:33;;;;;;;3.30;2.38;;;;;;;;;;5033647;28;20127;-80
2022/09/01 21:39:58;;;;;;;3.72;2.30;;;;;;;;;;5041206;28;20271;-81
2022/09/01 21:42:49;;;;;;;3.38;2.40;;;;;;;;;;5050891;28;20445;-81
2022/09/01 21:45:17;;;;;;;5.15;2.53;;;;;;;;;;5037280;28;20604;-80
2022/09/01 21:47:44;;;;;;;3.80;2.67;;;;;;;;;;5036408;28;20712;-80
2022/09/01 21:50:10;;;;;;;2.92;2.63;;;;;;;;;;5030905;28;20049;-80
2022/09/01 21:52:36;;;;;;;8.77;2.50;;;;;;;;;;5050418;28;20045;-80
2022/09/01 21:55:01;;;;;;;4.65;2.83;;;;;;;;;;5036931;28;20532;-81
2022/09/01 21:57:27;;;;;;;6.55;3.10;;;;;;;;;;5038220;28;20135;-80
2022/09/01 21:59:52;;;;;;;4.05;2.70;;;;;;;;;;5038141;28;20852;-81
2022/09/01 22:02:19;;;;;;;4.35;2.60;;;;;;;;;;5038533;28;20502;-80
2022/09/01 22:04:45;;;;;;;7.28;2.55;;;;;;;;;;5034857;28;20049;-80
2022/09/01 22:07:14;;;;;;;4.35;2.42;;;;;;;;;;5034647;28;20037;-81
2022/09/01 22:09:40;;;;;;;5.70;2.65;;;;;;;;;;5028768;28;20094;-81
2022/09/01 22:12:06;;;;;;;6.95;2.38;;;;;;;;;;5037389;28;20676;-81
2022/09/01 22:14:32;;;;;;;4.75;2.50;;;;;;;;;;5038622;28;20045;-80
2022/09/01 22:16:58;;;;;;;3.78;2.65;;;;;;;;;;5034528;28;20598;-81
2022/09/01 22:19:23;;;;;;;4.82;2.80;;;;;;;;;;5034680;28;20541;-80
2022/09/01 22:21:49;;;;;;;3.17;2.63;;;;;;;;;;5037852;28;20064;-80
2022/09/01 22:24:15;;;;;;;3.72;2.47;;;;;;;;;;5041216;28;20025;-81
2022/09/01 22:26:40;;;;;;;4.32;2.60;;;;;;;;;;5031084;28;20107;-80
2022/09/01 22:29:06;;;;;;;4.95;2.40;;;;;;;;;;5040730;28;20036;-81
2022/09/01 22:31:35;;;;;;;3.35;2.38;;;;;;;;;;5044961;28;20399;-81
2022/09/01 22:34:01;;;;;;;2.95;2.50;;;;;;;;;;5045902;28;20055;-82
2022/09/01 22:36:34;;;;;;;5.30;2.70;;;;;;;;;;5042796;28;20248;-81
2022/09/01 22:39:00;;;;;;;5.45;2.70;;;;;;;;;;5044538;28;20037;-81
2022/09/01 22:41:28;;;;;;;5.53;3.00;;;;;;;;;;5039489;28;20067;-81
2022/09/01 22:43:54;;;;;;;3.88;2.50;;;;;;;;;;5043758;28;20043;-81
2022/09/01 22:46:21;;;;;;;3.95;3.05;;;;;;;;;;5044922;28;20553;-81
2022/09/01 22:48:46;;;;;;;3.92;2.60;;;;;;;;;;5041647;28;20418;-81
2022/09/01 22:51:13;;;;;;;4.85;3.00;;;;;;;;;;5044127;28;20009;-81
2022/09/01 22:53:41;;;;;;;4.47;3.00;;;;;;;;;;5040781;28;20037;-81
2022/09/01 22:56:33;;;;;;;4.82;2.80;;;;;;;;;;5044039;28;20115;-81
2022/09/01 22:59:01;;;;;;;3.05;2.60;;;;;;;;;;5039995;28;20045;-81
2022/09/01 23:01:30;;;;;;;3.38;2.70;;;;;;;;;;5053499;28;20120;-81
2022/09/01 23:03:58;;;;;;;5.20;2.72;;;;;;;;;;5049457;28;20040;-81
2022/09/01 23:06:26;;;;;;;3.17;2.40;;;;;;;;;;5045477;28;20025;-81
2022/09/01 23:08:52;;;;;;;5.25;2.33;;;;;;;;;;5046204;28;20053;-81
2022/09/01 23:11:17;;;;;;;3.47;2.67;;;;;;;;;;5038960;28;20033;-81
2022/09/01 23:13:43;;;;;;;9.00;2.88;;;;;;;;;;5043924;28;20040;-81
2022/09/01 23:16:11;;;;;;;3.95;2.80;;;;;;;;;;5046238;28;20033;-81
2022/09/01 23:18:40;;;;;;;2.88;2.40;;;;;;;;;;5047681;28;20075;-81
2022/09/01 23:21:07;;;;;;;2.85;2.30;;;;;;;;;;5040018;28;20041;-81
2022/09/01 23:23:34;;;;;;;4.65;2.88;;;;;;;;;;5038721;28;20033;-81
2022/09/01 23:26:01;;;;;;;3.67;2.58;;;;;;;;;;5045074;28;20175;-82
2022/09/01 23:28:27;;;;;;;3.88;2.85;;;;;;;;;;5044222;28;20549;-81
2022/09/01 23:30:53;;;;;;;4.40;2.40;;;;;;;;;;5044203;28;20048;-81
2022/09/01 23:33:20;;;;;;;5.13;3.17;;;;;;;;;;5047852;28;20058;-81
2022/09/01 23:35:50;;;;;;;4.45;2.97;;;;;;;;;;5047053;28;20048;-81
2022/09/01 23:38:18;;;;;;;5.43;2.80;;;;;;;;;;5046149;28;20056;-81
2022/09/01 23:40:47;;;;;;;3.47;2.58;;;;;;;;;;5029564;28;20034;-81
2022/09/01 23:43:13;;;;;;;3.80;2.83;;;;;;;;;;5048154;28;20063;-81
2022/09/01 23:45:47;;;;;;;3.97;2.90;;;;;;;;;;5048021;28;20674;-81
2022/09/01 23:48:13;;;;;;;6.10;3.22;;;;;;;;;;5026728;28;20128;-81
2022/09/01 23:51:07;;;;;;;5.32;2.90;;;;;;;;;;5033779;28;20041;-81
2022/09/01 23:53:34;;;;;;;3.85;2.72;;;;;;;;;;5024364;28;20046;-81
2022/09/01 23:56:02;;;;;;;3.53;3.10;;;;;;;;;;5045439;28;20092;-82
2022/09/01 23:58:30;;;;;;;4.10;2.90;;;;;;;;;;5046645;28;20068;-81
